createdAt,value
2022-08-26T00:04:19.714Z,21.30
2022-08-26T00:09:24.796Z,21.30
2022-08-26T00:14:31.251Z,21.10
2022-08-26T00:19:34.500Z,21.20
2022-08-26T00:24:39.093Z,21.10
2022-08-26T00:29:42.136Z,21.00
2022-08-26T00:34:44.889Z,20.90
2022-08-26T00:39:49.008Z,20.70
2022-08-26T00:44:52.120Z,20.50
2022-08-26T00:49:56.253Z,20.40
2022-08-26T00:55:04.429Z,20.50
2022-08-26T01:00:11.504Z,20.40
2022-08-26T01:05:14.734Z,20.40
2022-08-26T01:10:21.896Z,20.50
2022-08-26T01:15:29.038Z,20.40
2022-08-26T01:20:42.057Z,20.40
2022-08-26T01:25:49.439Z,20.30
2022-08-26T01:30:55.992Z,20.40
2022-08-26T01:35:59.186Z,20.30
2022-08-26T01:41:16.340Z,20.30
2022-08-26T01:46:24.870Z,20.10
2022-08-26T01:51:28.784Z,20.10
2022-08-26T01:56:36.451Z,20.10
2022-08-26T02:01:39.627Z,20.10
2022-08-26T02:06:43.001Z,20.20
2022-08-26T02:11:47.517Z,20.20
2022-08-26T02:16:54.288Z,20.30
2022-08-26T02:21:58.989Z,20.10
2022-08-26T02:27:03.375Z,20.10
2022-08-26T02:32:09.732Z,20.00
2022-08-26T02:37:13.331Z,20.10
2022-08-26T02:42:17.337Z,20.20
2022-08-26T02:47:20.117Z,20.10
2022-08-26T02:52:27.683Z,20.00
2022-08-26T02:57:32.360Z,19.90
2022-08-26T03:02:35.089Z,19.90
2022-08-26T03:07:37.988Z,20.00
2022-08-26T03:12:41.987Z,19.90
2022-08-26T03:17:45.436Z,19.80
2022-08-26T03:22:51.336Z,19.60
2022-08-26T03:27:55.373Z,19.50
2022-08-26T03:32:58.090Z,19.70
2022-08-26T03:38:01.909Z,19.70
2022-08-26T03:43:09.594Z,19.80
2022-08-26T03:48:12.855Z,19.80
2022-08-26T03:53:15.543Z,19.80
2022-08-26T03:58:20.440Z,19.70
2022-08-26T04:03:37.113Z,19.60
2022-08-26T04:08:40.228Z,19.60
2022-08-26T04:13:44.223Z,19.70
2022-08-26T04:18:47.090Z,19.70
2022-08-26T04:23:50.079Z,19.70
2022-08-26T04:28:55.503Z,19.70
2022-08-26T04:33:58.295Z,19.70
2022-08-26T04:39:02.731Z,19.90
2022-08-26T04:44:07.662Z,19.90
2022-08-26T04:49:10.452Z,19.80
2022-08-26T04:54:14.082Z,19.90
2022-08-26T04:59:20.353Z,20.00
2022-08-26T05:04:24.489Z,20.00
2022-08-26T05:09:28.060Z,20.10
2022-08-26T05:14:32.086Z,20.30
2022-08-26T05:19:37.057Z,20.20
2022-08-26T05:24:41.350Z,20.30
2022-08-26T05:29:45.402Z,20.40
2022-08-26T05:34:51.429Z,20.40
2022-08-26T05:39:56.064Z,20.60
2022-08-26T05:45:00.092Z,20.70
2022-08-26T05:50:05.474Z,21.00
2022-08-26T05:55:08.795Z,21.30
2022-08-26T06:00:16.130Z,21.40
2022-08-26T06:05:19.555Z,21.40
2022-08-26T06:10:32.948Z,21.60
2022-08-26T06:15:42.035Z,21.90
2022-08-26T06:20:57.285Z,22.30
2022-08-26T06:26:01.424Z,22.70
2022-08-26T06:31:06.913Z,23.10
2022-08-26T06:36:15.692Z,23.30
2022-08-26T06:41:21.021Z,23.30
2022-08-26T06:46:26.045Z,23.40
2022-08-26T06:51:31.423Z,23.50
2022-08-26T06:57:05.732Z,23.70
2022-08-26T07:02:54.985Z,24.20
2022-08-26T07:08:17.698Z,24.80
2022-08-26T07:13:59.964Z,25.10
2022-08-26T07:19:29.093Z,25.70
2022-08-26T07:25:23.212Z,26.70
2022-08-26T07:38:21.369Z,27.60
2022-08-26T07:50:49.100Z,27.40
2022-08-26T07:56:39.319Z,27.50
2022-08-26T08:02:37.727Z,27.90
2022-08-26T08:07:53.544Z,28.40
2022-08-26T08:13:32.609Z,30.70
2022-08-26T08:18:42.222Z,33.00
2022-08-26T08:24:06.935Z,35.20
2022-08-26T08:29:53.370Z,37.20
2022-08-26T08:35:34.058Z,39.30
2022-08-26T08:40:52.081Z,40.00
2022-08-26T08:46:20.065Z,41.00
2022-08-26T08:51:47.625Z,42.10
2022-08-26T08:57:26.609Z,43.10
2022-08-26T09:03:07.086Z,44.60
2022-08-26T09:08:38.157Z,47.00
2022-08-26T09:14:14.204Z,46.30
2022-08-26T09:19:25.845Z,46.10
2022-08-26T09:24:57.712Z,43.40
2022-08-26T09:30:02.283Z,38.60
2022-08-26T09:35:23.851Z,34.00
2022-08-26T09:40:59.160Z,31.70
2022-08-26T10:15:50.665Z,26.90
2022-08-26T11:18:30.361Z,36.70
2022-08-26T11:29:59.113Z,41.10
2022-08-26T11:35:06.713Z,38.80
2022-08-26T11:40:12.807Z,37.70
2022-08-26T11:45:20.501Z,38.80
2022-08-26T11:50:27.422Z,44.20
2022-08-26T11:55:30.980Z,47.60
2022-08-26T12:00:49.488Z,51.40
2022-08-26T12:05:55.123Z,53.10
2022-08-26T12:11:08.572Z,52.60
2022-08-26T12:16:12.521Z,53.70
2022-08-26T12:21:22.300Z,54.30
2022-08-26T12:26:29.130Z,55.00
2022-08-26T12:31:34.327Z,53.80
2022-08-26T12:36:43.555Z,53.60
2022-08-26T12:41:50.954Z,51.70
2022-08-26T12:46:54.100Z,52.10
2022-08-26T12:51:58.213Z,52.70
2022-08-26T12:57:10.763Z,52.90
2022-08-26T13:02:37.739Z,51.10
2022-08-26T13:07:41.845Z,51.30
2022-08-26T13:12:44.523Z,49.80
2022-08-26T13:17:47.243Z,50.10
2022-08-26T13:22:51.945Z,51.10
2022-08-26T13:28:01.938Z,51.80
2022-08-26T13:33:04.729Z,50.40
2022-08-26T13:38:14.751Z,47.40
2022-08-26T13:43:35.704Z,48.40
2022-08-26T13:48:38.707Z,43.30
2022-08-26T13:53:45.187Z,39.20
2022-08-26T13:58:48.323Z,36.20
2022-08-26T14:03:52.604Z,34.90
2022-08-26T14:08:56.663Z,33.80
2022-08-26T14:13:59.378Z,33.20
2022-08-26T14:19:03.580Z,33.90
2022-08-26T14:24:08.002Z,35.40
2022-08-26T14:29:14.641Z,33.90
2022-08-26T14:34:19.376Z,35.10
2022-08-26T14:39:23.396Z,38.90
2022-08-26T14:44:30.500Z,41.70
2022-08-26T14:49:33.307Z,43.80
2022-08-26T14:54:37.753Z,44.00
2022-08-26T14:59:42.982Z,43.20
2022-08-26T15:04:48.216Z,43.30
2022-08-26T15:09:52.239Z,43.70
2022-08-26T15:14:54.896Z,41.80
2022-08-26T15:19:57.628Z,41.00
2022-08-26T15:25:02.048Z,42.20
2022-08-26T15:30:05.871Z,42.20
2022-08-26T15:35:09.584Z,40.50
2022-08-26T15:40:13.807Z,38.80
2022-08-26T15:45:24.970Z,37.70
2022-08-26T15:50:29.127Z,36.90
2022-08-26T15:55:33.128Z,37.30
2022-08-26T16:00:37.721Z,37.00
2022-08-26T16:05:41.586Z,35.30
2022-08-26T16:10:50.365Z,33.50
2022-08-26T16:15:53.651Z,32.40
2022-08-26T16:21:13.140Z,31.70
2022-08-26T16:26:20.536Z,31.20
2022-08-26T16:31:23.351Z,30.90
2022-08-26T16:36:26.207Z,30.60
2022-08-26T16:41:31.850Z,30.30
2022-08-26T16:46:35.607Z,29.90
2022-08-26T16:51:38.661Z,29.70
2022-08-26T16:56:42.688Z,29.30
2022-08-26T17:01:45.495Z,29.00
2022-08-26T17:06:48.305Z,29.00
2022-08-26T17:11:52.603Z,28.80
2022-08-26T17:16:55.339Z,28.50
2022-08-26T17:21:58.010Z,28.40
2022-08-26T17:27:02.126Z,28.40
2022-08-26T18:15:11.385Z,26.30
2022-08-26T18:20:19.135Z,26.10
2022-08-26T18:25:22.013Z,26.00
2022-08-26T18:30:25.300Z,25.70
2022-08-26T18:35:30.335Z,25.50
2022-08-26T18:40:33.064Z,25.40
2022-08-26T18:45:36.340Z,25.40
2022-08-26T18:50:43.817Z,25.40
2022-08-26T18:55:48.801Z,25.40
2022-08-26T19:06:14.427Z,25.40
2022-08-26T19:11:17.255Z,25.20
2022-08-26T19:16:34.929Z,25.00
2022-08-26T19:21:39.815Z,25.00
2022-08-26T19:26:43.003Z,24.70
2022-08-26T19:31:47.885Z,24.80
2022-08-26T19:36:56.206Z,25.00
2022-08-26T19:42:00.388Z,25.00
2022-08-26T19:47:20.687Z,25.00
2022-08-26T19:52:29.914Z,24.60
2022-08-26T19:57:37.663Z,24.60
2022-08-26T20:02:41.649Z,24.60
2022-08-26T20:07:47.470Z,24.50
2022-08-26T20:12:52.315Z,24.70
2022-08-26T20:17:56.096Z,24.40
2022-08-26T20:23:01.029Z,24.50
2022-08-26T20:28:04.522Z,24.40
2022-08-26T20:33:07.609Z,24.10
2022-08-26T20:38:12.185Z,23.80
2022-08-26T20:43:15.233Z,23.80
2022-08-26T20:48:17.944Z,23.70
2022-08-26T20:53:21.942Z,23.60
2022-08-26T20:58:26.971Z,23.50
2022-08-26T21:03:30.793Z,23.60
2022-08-26T21:08:37.798Z,23.50
2022-08-26T21:14:03.900Z,23.40
2022-08-26T21:19:07.949Z,23.50
2022-08-26T21:24:13.044Z,23.50
2022-08-26T21:29:16.611Z,23.50
2022-08-26T21:34:20.362Z,23.40
2022-08-26T21:39:25.032Z,23.20
2022-08-26T21:44:28.325Z,23.00
2022-08-26T21:49:34.006Z,22.70
2022-08-26T21:54:38.423Z,22.70
2022-08-26T21:59:42.933Z,22.60
2022-08-26T22:04:48.856Z,22.50
2022-08-26T22:09:53.230Z,22.40
2022-08-26T22:14:55.965Z,22.40
2022-08-26T22:19:58.628Z,22.40
2022-08-26T22:25:04.784Z,22.40
2022-08-26T22:30:08.284Z,22.40
2022-08-26T22:35:29.337Z,22.30
2022-08-26T22:40:35.416Z,22.30
2022-08-26T22:45:41.699Z,22.40
2022-08-26T22:50:45.157Z,22.30
2022-08-26T22:55:50.595Z,22.30
2022-08-26T23:00:53.453Z,22.30
2022-08-26T23:05:58.750Z,22.20
2022-08-26T23:11:04.318Z,22.20
2022-08-26T23:16:10.145Z,22.30
2022-08-26T23:21:13.003Z,22.20
2022-08-26T23:26:17.860Z,22.20
2022-08-26T23:31:20.655Z,22.20
2022-08-26T23:36:23.398Z,22.10
2022-08-26T23:41:28.335Z,22.10
2022-08-26T23:46:31.288Z,22.00
2022-08-26T23:51:51.801Z,22.00
2022-08-26T23:56:55.904Z,22.10
